sensor_id;sensor_type;location;lat;lon;timestamp;P1;durP1;ratioP1;P2;durP2;ratioP2
22713;SDS011;11524;50.846;4.326;2022-11-11T00:02:23;5.85;;;3.30;;
22713;SDS011;11524;50.846;4.326;2022-11-11T00:04:49;4.53;;;3.30;;
22713;SDS011;11524;50.846;4.326;2022-11-11T00:07:14;6.55;;;3.42;;
22713;SDS011;11524;50.846;4.326;2022-11-11T00:09:40;6.43;;;3.60;;
22713;SDS011;11524;50.846;4.326;2022-11-11T00:12:06;5.68;;;3.53;;
22713;SDS011;11524;50.846;4.326;2022-11-11T00:14:31;6.93;;;3.22;;
22713;SDS011;11524;50.846;4.326;2022-11-11T00:16:57;6.03;;;3.60;;
22713;SDS011;11524;50.846;4.326;2022-11-11T00:22:25;5.45;;;3.10;;
22713;SDS011;11524;50.846;4.326;2022-11-11T00:25:09;6.25;;;3.70;;
22713;SDS011;11524;50.846;4.326;2022-11-11T00:27:37;3.95;;;3.10;;
22713;SDS011;11524;50.846;4.326;2022-11-11T00:30:04;5.18;;;3.30;;
22713;SDS011;11524;50.846;4.326;2022-11-11T00:32:31;5.45;;;3.55;;
22713;SDS011;11524;50.846;4.326;2022-11-11T00:34:58;5.07;;;3.35;;
22713;SDS011;11524;50.846;4.326;2022-11-11T00:37:43;5.70;;;3.40;;
22713;SDS011;11524;50.846;4.326;2022-11-11T00:40:11;5.28;;;3.47;;
22713;SDS011;11524;50.846;4.326;2022-11-11T00:42:36;5.20;;;3.00;;
22713;SDS011;11524;50.846;4.326;2022-11-11T00:45:02;4.53;;;2.90;;
22713;SDS011;11524;50.846;4.326;2022-11-11T00:47:29;5.35;;;3.20;;
22713;SDS011;11524;50.846;4.326;2022-11-11T00:53:03;3.60;;;2.88;;
22713;SDS011;11524;50.846;4.326;2022-11-11T00:55:32;4.15;;;2.83;;
22713;SDS011;11524;50.846;4.326;2022-11-11T00:57:57;4.00;;;3.03;;
22713;SDS011;11524;50.846;4.326;2022-11-11T01:00:23;4.18;;;3.30;;
22713;SDS011;11524;50.846;4.326;2022-11-11T01:02:48;5.07;;;3.40;;
22713;SDS011;11524;50.846;4.326;2022-11-11T01:05:14;5.00;;;3.15;;
22713;SDS011;11524;50.846;4.326;2022-11-11T01:07:40;3.97;;;2.90;;
22713;SDS011;11524;50.846;4.326;2022-11-11T01:10:05;4.28;;;2.60;;
22713;SDS011;11524;50.846;4.326;2022-11-11T01:12:31;6.03;;;2.90;;
22713;SDS011;11524;50.846;4.326;2022-11-11T01:14:57;5.18;;;2.88;;
22713;SDS011;11524;50.846;4.326;2022-11-11T01:17:22;4.55;;;3.13;;
22713;SDS011;11524;50.846;4.326;2022-11-11T01:19:48;3.97;;;2.55;;
22713;SDS011;11524;50.846;4.326;2022-11-11T01:22:14;3.47;;;2.45;;
22713;SDS011;11524;50.846;4.326;2022-11-11T01:24:39;4.72;;;2.90;;
22713;SDS011;11524;50.846;4.326;2022-11-11T01:27:05;4.78;;;3.35;;
22713;SDS011;11524;50.846;4.326;2022-11-11T01:29:30;3.10;;;2.63;;
22713;SDS011;11524;50.846;4.326;2022-11-11T01:31:56;3.47;;;2.80;;
22713;SDS011;11524;50.846;4.326;2022-11-11T01:34:21;5.20;;;2.78;;
22713;SDS011;11524;50.846;4.326;2022-11-11T01:36:47;4.18;;;2.83;;
22713;SDS011;11524;50.846;4.326;2022-11-11T01:39:13;3.40;;;2.80;;
22713;SDS011;11524;50.846;4.326;2022-11-11T01:41:38;4.35;;;3.17;;
22713;SDS011;11524;50.846;4.326;2022-11-11T01:46:49;4.70;;;3.10;;
22713;SDS011;11524;50.846;4.326;2022-11-11T01:49:30;5.00;;;3.22;;
22713;SDS011;11524;50.846;4.326;2022-11-11T01:52:09;5.03;;;3.10;;
22713;SDS011;11524;50.846;4.326;2022-11-11T01:54:51;3.97;;;2.92;;
22713;SDS011;11524;50.846;4.326;2022-11-11T01:57:40;5.38;;;3.13;;
22713;SDS011;11524;50.846;4.326;2022-11-11T02:00:12;4.65;;;2.78;;
22713;SDS011;11524;50.846;4.326;2022-11-11T02:02:50;3.55;;;3.10;;
22713;SDS011;11524;50.846;4.326;2022-11-11T02:05:21;5.45;;;3.42;;
22713;SDS011;11524;50.846;4.326;2022-11-11T02:08:09;5.60;;;3.38;;
22713;SDS011;11524;50.846;4.326;2022-11-11T02:10:35;4.57;;;3.20;;
22713;SDS011;11524;50.846;4.326;2022-11-11T02:13:04;4.38;;;3.30;;
22713;SDS011;11524;50.846;4.326;2022-11-11T02:15:54;4.88;;;3.50;;
22713;SDS011;11524;50.846;4.326;2022-11-11T02:18:20;4.47;;;3.65;;
22713;SDS011;11524;50.846;4.326;2022-11-11T02:20:45;6.18;;;4.55;;
22713;SDS011;11524;50.846;4.326;2022-11-11T02:23:21;5.00;;;3.65;;
22713;SDS011;11524;50.846;4.326;2022-11-11T02:26:12;6.47;;;4.38;;
22713;SDS011;11524;50.846;4.326;2022-11-11T02:28:41;6.47;;;4.68;;
22713;SDS011;11524;50.846;4.326;2022-11-11T02:31:07;5.65;;;4.55;;
22713;SDS011;11524;50.846;4.326;2022-11-11T02:33:33;6.50;;;4.30;;
22713;SDS011;11524;50.846;4.326;2022-11-11T02:35:59;4.57;;;3.80;;
22713;SDS011;11524;50.846;4.326;2022-11-11T02:38:26;5.80;;;4.70;;
22713;SDS011;11524;50.846;4.326;2022-11-11T02:40:53;6.97;;;5.20;;
22713;SDS011;11524;50.846;4.326;2022-11-11T02:43:37;6.53;;;4.68;;
22713;SDS011;11524;50.846;4.326;2022-11-11T02:46:03;5.97;;;4.30;;
22713;SDS011;11524;50.846;4.326;2022-11-11T02:48:30;4.85;;;3.88;;
22713;SDS011;11524;50.846;4.326;2022-11-11T02:50:56;6.30;;;4.60;;
22713;SDS011;11524;50.846;4.326;2022-11-11T02:53:22;6.05;;;4.53;;
22713;SDS011;11524;50.846;4.326;2022-11-11T02:55:48;5.28;;;3.85;;
22713;SDS011;11524;50.846;4.326;2022-11-11T02:58:13;5.53;;;3.88;;
22713;SDS011;11524;50.846;4.326;2022-11-11T03:00:40;5.75;;;4.05;;
22713;SDS011;11524;50.846;4.326;2022-11-11T03:03:09;4.60;;;3.50;;
22713;SDS011;11524;50.846;4.326;2022-11-11T03:05:35;5.03;;;3.40;;
22713;SDS011;11524;50.846;4.326;2022-11-11T03:08:00;4.57;;;3.53;;
22713;SDS011;11524;50.846;4.326;2022-11-11T03:10:27;4.07;;;3.33;;
22713;SDS011;11524;50.846;4.326;2022-11-11T03:12:53;5.35;;;3.60;;
22713;SDS011;11524;50.846;4.326;2022-11-11T03:15:20;5.43;;;3.65;;
22713;SDS011;11524;50.846;4.326;2022-11-11T03:17:45;4.30;;;3.40;;
22713;SDS011;11524;50.846;4.326;2022-11-11T03:20:13;4.10;;;3.50;;
22713;SDS011;11524;50.846;4.326;2022-11-11T03:23:12;4.55;;;3.65;;
22713;SDS011;11524;50.846;4.326;2022-11-11T03:25:40;4.75;;;3.50;;
22713;SDS011;11524;50.846;4.326;2022-11-11T03:28:09;4.43;;;3.65;;
22713;SDS011;11524;50.846;4.326;2022-11-11T03:30:37;4.13;;;3.67;;
22713;SDS011;11524;50.846;4.326;2022-11-11T03:33:04;4.60;;;3.80;;
22713;SDS011;11524;50.846;4.326;2022-11-11T03:35:31;5.05;;;4.07;;
22713;SDS011;11524;50.846;4.326;2022-11-11T03:37:57;4.18;;;3.70;;
22713;SDS011;11524;50.846;4.326;2022-11-11T03:40:42;4.72;;;3.70;;
22713;SDS011;11524;50.846;4.326;2022-11-11T03:43:09;5.55;;;3.40;;
22713;SDS011;11524;50.846;4.326;2022-11-11T03:45:35;4.10;;;3.50;;
22713;SDS011;11524;50.846;4.326;2022-11-11T03:48:01;5.95;;;3.58;;
22713;SDS011;11524;50.846;4.326;2022-11-11T03:50:26;5.35;;;3.53;;
22713;SDS011;11524;50.846;4.326;2022-11-11T03:52:52;4.57;;;3.47;;
22713;SDS011;11524;50.846;4.326;2022-11-11T03:55:19;4.45;;;3.45;;
22713;SDS011;11524;50.846;4.326;2022-11-11T03:57:45;4.78;;;3.42;;
22713;SDS011;11524;50.846;4.326;2022-11-11T04:00:12;4.88;;;3.30;;
22713;SDS011;11524;50.846;4.326;2022-11-11T04:02:40;3.83;;;3.05;;
22713;SDS011;11524;50.846;4.326;2022-11-11T04:05:24;4.25;;;3.35;;
22713;SDS011;11524;50.846;4.326;2022-11-11T04:08:12;5.60;;;3.38;;
22713;SDS011;11524;50.846;4.326;2022-11-11T04:10:58;3.33;;;3.00;;
22713;SDS011;11524;50.846;4.326;2022-11-11T04:13:27;5.03;;;3.20;;
22713;SDS011;11524;50.846;4.326;2022-11-11T04:16:13;4.93;;;3.13;;
22713;SDS011;11524;50.846;4.326;2022-11-11T04:18:38;3.88;;;3.10;;
22713;SDS011;11524;50.846;4.326;2022-11-11T04:24:07;4.25;;;2.70;;
22713;SDS011;11524;50.846;4.326;2022-11-11T04:26:53;3.63;;;2.80;;
22713;SDS011;11524;50.846;4.326;2022-11-11T04:29:20;4.20;;;3.40;;
22713;SDS011;11524;50.846;4.326;2022-11-11T04:34:45;4.28;;;3.05;;
22713;SDS011;11524;50.846;4.326;2022-11-11T04:37:12;5.05;;;3.05;;
22713;SDS011;11524;50.846;4.326;2022-11-11T04:39:38;4.18;;;3.00;;
22713;SDS011;11524;50.846;4.326;2022-11-11T04:42:22;7.70;;;3.30;;
22713;SDS011;11524;50.846;4.326;2022-11-11T04:44:48;5.60;;;3.00;;
22713;SDS011;11524;50.846;4.326;2022-11-11T04:47:32;4.00;;;3.00;;
22713;SDS011;11524;50.846;4.326;2022-11-11T04:49:58;5.00;;;3.03;;
22713;SDS011;11524;50.846;4.326;2022-11-11T04:52:24;5.60;;;3.40;;
22713;SDS011;11524;50.846;4.326;2022-11-11T04:54:56;3.72;;;3.25;;
22713;SDS011;11524;50.846;4.326;2022-11-11T04:57:42;7.20;;;3.45;;
22713;SDS011;11524;50.846;4.326;2022-11-11T05:00:09;4.63;;;3.00;;
22713;SDS011;11524;50.846;4.326;2022-11-11T05:02:40;3.58;;;2.67;;
22713;SDS011;11524;50.846;4.326;2022-11-11T05:05:24;3.65;;;2.90;;
22713;SDS011;11524;50.846;4.326;2022-11-11T05:07:50;4.32;;;2.70;;
22713;SDS011;11524;50.846;4.326;2022-11-11T05:13:00;5.10;;;2.85;;
22713;SDS011;11524;50.846;4.326;2022-11-11T05:15:44;3.90;;;2.53;;
22713;SDS011;11524;50.846;4.326;2022-11-11T05:21:14;5.03;;;2.88;;
22713;SDS011;11524;50.846;4.326;2022-11-11T05:23:45;3.47;;;2.60;;
22713;SDS011;11524;50.846;4.326;2022-11-11T05:26:29;3.28;;;2.60;;
22713;SDS011;11524;50.846;4.326;2022-11-11T05:28:55;3.47;;;2.70;;
22713;SDS011;11524;50.846;4.326;2022-11-11T05:31:20;3.20;;;2.53;;
22713;SDS011;11524;50.846;4.326;2022-11-11T05:33:46;2.38;;;2.10;;
22713;SDS011;11524;50.846;4.326;2022-11-11T05:36:12;3.30;;;2.40;;
22713;SDS011;11524;50.846;4.326;2022-11-11T05:38:37;3.65;;;2.40;;
22713;SDS011;11524;50.846;4.326;2022-11-11T05:41:03;3.38;;;2.30;;
22713;SDS011;11524;50.846;4.326;2022-11-11T05:43:28;2.75;;;2.50;;
22713;SDS011;11524;50.846;4.326;2022-11-11T05:45:54;4.93;;;2.60;;
22713;SDS011;11524;50.846;4.326;2022-11-11T05:48:19;3.10;;;2.45;;
22713;SDS011;11524;50.846;4.326;2022-11-11T05:50:45;4.40;;;2.67;;
22713;SDS011;11524;50.846;4.326;2022-11-11T05:53:11;2.95;;;2.55;;
22713;SDS011;11524;50.846;4.326;2022-11-11T05:55:36;3.95;;;2.85;;
22713;SDS011;11524;50.846;4.326;2022-11-11T05:58:02;2.35;;;2.15;;
22713;SDS011;11524;50.846;4.326;2022-11-11T06:00:27;2.58;;;1.85;;
22713;SDS011;11524;50.846;4.326;2022-11-11T06:02:53;3.97;;;2.42;;
22713;SDS011;11524;50.846;4.326;2022-11-11T06:05:19;3.22;;;2.50;;
22713;SDS011;11524;50.846;4.326;2022-11-11T06:07:44;3.45;;;2.55;;
22713;SDS011;11524;50.846;4.326;2022-11-11T06:10:10;4.05;;;2.30;;
22713;SDS011;11524;50.846;4.326;2022-11-11T06:12:54;3.70;;;2.55;;
22713;SDS011;11524;50.846;4.326;2022-11-11T06:15:29;2.88;;;2.35;;
22713;SDS011;11524;50.846;4.326;2022-11-11T06:18:05;2.92;;;2.20;;
22713;SDS011;11524;50.846;4.326;2022-11-11T06:20:32;3.55;;;2.53;;
22713;SDS011;11524;50.846;4.326;2022-11-11T06:23:01;3.35;;;2.35;;
22713;SDS011;11524;50.846;4.326;2022-11-11T06:25:29;3.45;;;2.17;;
22713;SDS011;11524;50.846;4.326;2022-11-11T06:28:14;2.75;;;2.30;;
22713;SDS011;11524;50.846;4.326;2022-11-11T06:30:41;2.92;;;2.28;;
22713;SDS011;11524;50.846;4.326;2022-11-11T06:33:07;2.60;;;1.98;;
22713;SDS011;11524;50.846;4.326;2022-11-11T06:35:33;2.60;;;2.40;;
22713;SDS011;11524;50.846;4.326;2022-11-11T06:38:00;3.42;;;2.40;;
22713;SDS011;11524;50.846;4.326;2022-11-11T06:40:26;3.03;;;2.72;;
22713;SDS011;11524;50.846;4.326;2022-11-11T06:42:52;3.40;;;2.70;;
22713;SDS011;11524;50.846;4.326;2022-11-11T06:45:18;3.45;;;2.30;;
22713;SDS011;11524;50.846;4.326;2022-11-11T06:47:44;3.13;;;2.25;;
22713;SDS011;11524;50.846;4.326;2022-11-11T06:50:09;2.42;;;2.22;;
22713;SDS011;11524;50.846;4.326;2022-11-11T06:52:35;4.15;;;2.35;;
22713;SDS011;11524;50.846;4.326;2022-11-11T06:55:01;3.33;;;2.38;;
22713;SDS011;11524;50.846;4.326;2022-11-11T06:57:26;2.85;;;2.42;;
22713;SDS011;11524;50.846;4.326;2022-11-11T06:59:52;3.50;;;2.58;;
22713;SDS011;11524;50.846;4.326;2022-11-11T07:02:17;3.03;;;2.40;;
22713;SDS011;11524;50.846;4.326;2022-11-11T07:04:43;2.95;;;2.65;;
22713;SDS011;11524;50.846;4.326;2022-11-11T07:07:08;2.70;;;2.47;;
22713;SDS011;11524;50.846;4.326;2022-11-11T07:09:34;3.72;;;2.60;;
22713;SDS011;11524;50.846;4.326;2022-11-11T07:12:00;4.88;;;2.72;;
22713;SDS011;11524;50.846;4.326;2022-11-11T07:14:25;2.97;;;2.47;;
22713;SDS011;11524;50.846;4.326;2022-11-11T07:16:51;6.22;;;3.35;;
22713;SDS011;11524;50.846;4.326;2022-11-11T07:19:17;3.33;;;2.58;;
22713;SDS011;11524;50.846;4.326;2022-11-11T07:21:43;3.55;;;2.63;;
22713;SDS011;11524;50.846;4.326;2022-11-11T07:24:08;3.60;;;2.92;;
22713;SDS011;11524;50.846;4.326;2022-11-11T07:26:34;3.75;;;3.03;;
22713;SDS011;11524;50.846;4.326;2022-11-11T07:28:59;4.28;;;2.85;;
22713;SDS011;11524;50.846;4.326;2022-11-11T07:31:25;4.07;;;2.80;;
22713;SDS011;11524;50.846;4.326;2022-11-11T07:33:51;2.88;;;2.55;;
22713;SDS011;11524;50.846;4.326;2022-11-11T07:36:16;3.42;;;3.13;;
22713;SDS011;11524;50.846;4.326;2022-11-11T07:38:45;4.10;;;2.70;;
22713;SDS011;11524;50.846;4.326;2022-11-11T07:41:17;4.50;;;2.47;;
22713;SDS011;11524;50.846;4.326;2022-11-11T07:43:42;4.53;;;3.00;;
22713;SDS011;11524;50.846;4.326;2022-11-11T07:46:08;3.03;;;2.50;;
22713;SDS011;11524;50.846;4.326;2022-11-11T07:48:34;4.82;;;3.40;;
22713;SDS011;11524;50.846;4.326;2022-11-11T07:50:59;6.70;;;5.00;;
22713;SDS011;11524;50.846;4.326;2022-11-11T07:56:35;8.88;;;5.90;;
22713;SDS011;11524;50.846;4.326;2022-11-11T07:59:01;9.48;;;5.80;;
22713;SDS011;11524;50.846;4.326;2022-11-11T08:01:29;8.48;;;5.75;;
22713;SDS011;11524;50.846;4.326;2022-11-11T08:03:58;11.00;;;7.00;;
22713;SDS011;11524;50.846;4.326;2022-11-11T08:06:29;10.07;;;6.63;;
22713;SDS011;11524;50.846;4.326;2022-11-11T08:08:55;10.30;;;6.28;;
22713;SDS011;11524;50.846;4.326;2022-11-11T08:11:20;8.75;;;6.25;;
22713;SDS011;11524;50.846;4.326;2022-11-11T08:14:06;10.82;;;4.78;;
22713;SDS011;11524;50.846;4.326;2022-11-11T08:16:32;10.13;;;4.38;;
22713;SDS011;11524;50.846;4.326;2022-11-11T08:18:58;8.80;;;3.78;;
22713;SDS011;11524;50.846;4.326;2022-11-11T08:21:24;5.43;;;3.40;;
22713;SDS011;11524;50.846;4.326;2022-11-11T08:23:50;4.20;;;2.88;;
22713;SDS011;11524;50.846;4.326;2022-11-11T08:26:16;9.32;;;3.05;;
22713;SDS011;11524;50.846;4.326;2022-11-11T08:28:43;6.95;;;3.20;;
22713;SDS011;11524;50.846;4.326;2022-11-11T08:31:09;5.05;;;2.55;;
22713;SDS011;11524;50.846;4.326;2022-11-11T08:33:35;5.63;;;2.40;;
22713;SDS011;11524;50.846;4.326;2022-11-11T08:36:01;5.78;;;2.78;;
22713;SDS011;11524;50.846;4.326;2022-11-11T08:38:27;3.95;;;2.53;;
22713;SDS011;11524;50.846;4.326;2022-11-11T08:40:58;6.68;;;3.50;;
22713;SDS011;11524;50.846;4.326;2022-11-11T08:43:25;9.38;;;3.60;;
22713;SDS011;11524;50.846;4.326;2022-11-11T08:45:53;9.00;;;3.40;;
22713;SDS011;11524;50.846;4.326;2022-11-11T08:48:19;9.75;;;3.67;;
22713;SDS011;11524;50.846;4.326;2022-11-11T08:50:45;13.85;;;3.72;;
22713;SDS011;11524;50.846;4.326;2022-11-11T08:53:10;6.15;;;3.30;;
22713;SDS011;11524;50.846;4.326;2022-11-11T08:55:36;8.23;;;3.42;;
22713;SDS011;11524;50.846;4.326;2022-11-11T08:58:03;6.72;;;3.42;;
22713;SDS011;11524;50.846;4.326;2022-11-11T09:00:30;6.53;;;3.17;;
22713;SDS011;11524;50.846;4.326;2022-11-11T09:03:00;8.85;;;3.30;;
22713;SDS011;11524;50.846;4.326;2022-11-11T09:05:27;6.05;;;3.40;;
22713;SDS011;11524;50.846;4.326;2022-11-11T09:07:53;5.13;;;3.20;;
22713;SDS011;11524;50.846;4.326;2022-11-11T09:10:18;5.10;;;3.50;;
22713;SDS011;11524;50.846;4.326;2022-11-11T09:12:45;7.15;;;3.58;;
22713;SDS011;11524;50.846;4.326;2022-11-11T09:15:10;7.07;;;3.50;;
22713;SDS011;11524;50.846;4.326;2022-11-11T09:17:36;7.70;;;3.60;;
22713;SDS011;11524;50.846;4.326;2022-11-11T09:20:01;5.38;;;3.65;;
22713;SDS011;11524;50.846;4.326;2022-11-11T09:22:27;6.32;;;3.55;;
22713;SDS011;11524;50.846;4.326;2022-11-11T09:24:53;6.80;;;3.78;;
22713;SDS011;11524;50.846;4.326;2022-11-11T09:27:18;8.55;;;3.90;;
22713;SDS011;11524;50.846;4.326;2022-11-11T09:29:44;7.35;;;3.83;;
22713;SDS011;11524;50.846;4.326;2022-11-11T09:32:09;9.07;;;4.57;;
22713;SDS011;11524;50.846;4.326;2022-11-11T09:34:35;6.72;;;4.13;;
22713;SDS011;11524;50.846;4.326;2022-11-11T09:37:00;8.85;;;4.22;;
22713;SDS011;11524;50.846;4.326;2022-11-11T09:39:26;7.68;;;3.97;;
22713;SDS011;11524;50.846;4.326;2022-11-11T09:44:53;7.75;;;4.45;;
22713;SDS011;11524;50.846;4.326;2022-11-11T09:50:21;5.45;;;3.80;;
22713;SDS011;11524;50.846;4.326;2022-11-11T09:52:56;7.63;;;3.67;;
22713;SDS011;11524;50.846;4.326;2022-11-11T09:55:41;9.95;;;3.58;;
22713;SDS011;11524;50.846;4.326;2022-11-11T09:58:20;9.35;;;3.70;;
22713;SDS011;11524;50.846;4.326;2022-11-11T10:00:56;8.93;;;3.80;;
22713;SDS011;11524;50.846;4.326;2022-11-11T10:03:26;9.77;;;4.30;;
22713;SDS011;11524;50.846;4.326;2022-11-11T10:06:14;9.30;;;3.28;;
22713;SDS011;11524;50.846;4.326;2022-11-11T10:08:50;9.35;;;3.50;;
22713;SDS011;11524;50.846;4.326;2022-11-11T10:14:03;6.63;;;3.60;;
22713;SDS011;11524;50.846;4.326;2022-11-11T10:21:51;5.57;;;2.90;;
22713;SDS011;11524;50.846;4.326;2022-11-11T10:24:25;5.53;;;3.30;;
22713;SDS011;11524;50.846;4.326;2022-11-11T10:27:19;5.03;;;2.40;;
22713;SDS011;11524;50.846;4.326;2022-11-11T10:29:49;6.80;;;3.10;;
22713;SDS011;11524;50.846;4.326;2022-11-11T10:32:17;4.00;;;2.63;;
22713;SDS011;11524;50.846;4.326;2022-11-11T10:34:43;4.68;;;2.90;;
22713;SDS011;11524;50.846;4.326;2022-11-11T10:37:14;6.45;;;2.53;;
22713;SDS011;11524;50.846;4.326;2022-11-11T10:42:30;6.07;;;2.50;;
22713;SDS011;11524;50.846;4.326;2022-11-11T10:44:59;4.15;;;2.50;;
22713;SDS011;11524;50.846;4.326;2022-11-11T10:47:46;4.22;;;2.50;;
22713;SDS011;11524;50.846;4.326;2022-11-11T10:53:03;5.25;;;2.20;;
22713;SDS011;11524;50.846;4.326;2022-11-11T10:58:24;5.55;;;2.20;;
22713;SDS011;11524;50.846;4.326;2022-11-11T11:01:03;4.13;;;2.20;;
22713;SDS011;11524;50.846;4.326;2022-11-11T11:03:39;4.63;;;2.20;;
22713;SDS011;11524;50.846;4.326;2022-11-11T11:06:27;5.50;;;2.22;;
22713;SDS011;11524;50.846;4.326;2022-11-11T11:08:56;3.47;;;2.10;;
22713;SDS011;11524;50.846;4.326;2022-11-11T11:11:37;3.38;;;2.28;;
22713;SDS011;11524;50.846;4.326;2022-11-11T11:14:20;3.53;;;1.80;;
22713;SDS011;11524;50.846;4.326;2022-11-11T11:16:53;3.42;;;1.80;;
22713;SDS011;11524;50.846;4.326;2022-11-11T11:19:26;3.10;;;1.83;;
22713;SDS011;11524;50.846;4.326;2022-11-11T11:21:56;4.70;;;2.08;;
22713;SDS011;11524;50.846;4.326;2022-11-11T11:24:24;3.97;;;1.83;;
22713;SDS011;11524;50.846;4.326;2022-11-11T11:26:51;3.55;;;2.00;;
22713;SDS011;11524;50.846;4.326;2022-11-11T11:29:26;3.90;;;2.00;;
22713;SDS011;11524;50.846;4.326;2022-11-11T11:31:58;2.97;;;1.90;;
22713;SDS011;11524;50.846;4.326;2022-11-11T11:34:56;5.07;;;2.55;;
22713;SDS011;11524;50.846;4.326;2022-11-11T11:40:00;2.40;;;1.73;;
22713;SDS011;11524;50.846;4.326;2022-11-11T11:42:32;4.30;;;1.80;;
22713;SDS011;11524;50.846;4.326;2022-11-11T11:45:13;4.75;;;1.92;;
22713;SDS011;11524;50.846;4.326;2022-11-11T11:52:51;3.17;;;1.77;;
22713;SDS011;11524;50.846;4.326;2022-11-11T11:55:27;4.07;;;1.60;;
22713;SDS011;11524;50.846;4.326;2022-11-11T11:58:01;3.15;;;1.73;;
22713;SDS011;11524;50.846;4.326;2022-11-11T12:00:37;4.55;;;1.80;;
22713;SDS011;11524;50.846;4.326;2022-11-11T12:08:57;4.15;;;1.73;;
22713;SDS011;11524;50.846;4.326;2022-11-11T12:11:47;4.22;;;1.70;;
22713;SDS011;11524;50.846;4.326;2022-11-11T12:22:34;2.75;;;1.65;;
22713;SDS011;11524;50.846;4.326;2022-11-11T12:35:31;3.15;;;1.60;;
22713;SDS011;11524;50.846;4.326;2022-11-11T12:39:02;4.07;;;1.65;;
22713;SDS011;11524;50.846;4.326;2022-11-11T12:41:18;3.42;;;1.70;;
22713;SDS011;11524;50.846;4.326;2022-11-11T12:44:07;4.15;;;1.40;;
22713;SDS011;11524;50.846;4.326;2022-11-11T12:49:24;2.58;;;1.70;;
22713;SDS011;11524;50.846;4.326;2022-11-11T12:52:09;4.30;;;1.85;;
22713;SDS011;11524;50.846;4.326;2022-11-11T12:55:38;2.00;;;1.80;;
22713;SDS011;11524;50.846;4.326;2022-11-11T13:00:32;2.70;;;1.60;;
22713;SDS011;11524;50.846;4.326;2022-11-11T13:05:51;2.45;;;1.42;;
22713;SDS011;11524;50.846;4.326;2022-11-11T13:11:20;4.60;;;1.85;;
22713;SDS011;11524;50.846;4.326;2022-11-11T13:13:54;3.65;;;1.55;;
22713;SDS011;11524;50.846;4.326;2022-11-11T13:16:29;2.85;;;1.90;;
22713;SDS011;11524;50.846;4.326;2022-11-11T13:19:14;3.45;;;1.70;;
22713;SDS011;11524;50.846;4.326;2022-11-11T13:21:48;3.55;;;1.70;;
22713;SDS011;11524;50.846;4.326;2022-11-11T13:24:19;2.30;;;1.80;;
22713;SDS011;11524;50.846;4.326;2022-11-11T13:27:11;2.70;;;1.55;;
22713;SDS011;11524;50.846;4.326;2022-11-11T13:32:58;2.20;;;1.70;;
22713;SDS011;11524;50.846;4.326;2022-11-11T13:35:30;2.30;;;1.58;;
22713;SDS011;11524;50.846;4.326;2022-11-11T13:38:00;1.77;;;1.27;;
22713;SDS011;11524;50.846;4.326;2022-11-11T13:43:00;2.08;;;1.80;;
22713;SDS011;11524;50.846;4.326;2022-11-11T13:45:37;2.58;;;1.70;;
22713;SDS011;11524;50.846;4.326;2022-11-11T13:48:05;2.67;;;1.73;;
22713;SDS011;11524;50.846;4.326;2022-11-11T13:50:40;2.35;;;1.50;;
22713;SDS011;11524;50.846;4.326;2022-11-11T13:53:12;2.65;;;1.40;;
22713;SDS011;11524;50.846;4.326;2022-11-11T13:56:03;2.75;;;1.58;;
22713;SDS011;11524;50.846;4.326;2022-11-11T14:01:04;1.63;;;1.38;;
22713;SDS011;11524;50.846;4.326;2022-11-11T14:03:36;2.60;;;1.80;;
22713;SDS011;11524;50.846;4.326;2022-11-11T14:06:34;4.97;;;1.70;;
22713;SDS011;11524;50.846;4.326;2022-11-11T14:09:00;2.58;;;1.63;;
22713;SDS011;11524;50.846;4.326;2022-11-11T14:11:31;2.75;;;1.65;;
22713;SDS011;11524;50.846;4.326;2022-11-11T14:14:44;3.03;;;1.98;;
22713;SDS011;11524;50.846;4.326;2022-11-11T14:16:58;3.25;;;1.75;;
22713;SDS011;11524;50.846;4.326;2022-11-11T14:24:24;2.00;;;1.67;;
22713;SDS011;11524;50.846;4.326;2022-11-11T14:29:54;3.20;;;1.92;;
22713;SDS011;11524;50.846;4.326;2022-11-11T14:35:20;3.47;;;1.75;;
22713;SDS011;11524;50.846;4.326;2022-11-11T14:38:02;2.85;;;1.95;;
22713;SDS011;11524;50.846;4.326;2022-11-11T14:40:39;3.42;;;1.75;;
22713;SDS011;11524;50.846;4.326;2022-11-11T14:46:04;2.63;;;1.60;;
22713;SDS011;11524;50.846;4.326;2022-11-11T14:54:20;3.22;;;2.00;;
22713;SDS011;11524;50.846;4.326;2022-11-11T14:57:05;3.83;;;1.98;;
22713;SDS011;11524;50.846;4.326;2022-11-11T14:59:33;3.95;;;2.15;;
22713;SDS011;11524;50.846;4.326;2022-11-11T15:02:00;2.28;;;1.73;;
22713;SDS011;11524;50.846;4.326;2022-11-11T15:04:26;3.00;;;1.80;;
22713;SDS011;11524;50.846;4.326;2022-11-11T15:07:00;2.25;;;1.60;;
22713;SDS011;11524;50.846;4.326;2022-11-11T15:15:22;2.75;;;1.60;;
22713;SDS011;11524;50.846;4.326;2022-11-11T15:20:40;3.05;;;1.65;;
22713;SDS011;11524;50.846;4.326;2022-11-11T15:39:37;2.83;;;1.80;;
22713;SDS011;11524;50.846;4.326;2022-11-11T15:42:09;2.65;;;1.73;;
22713;SDS011;11524;50.846;4.326;2022-11-11T15:44:54;3.28;;;2.00;;
22713;SDS011;11524;50.846;4.326;2022-11-11T15:47:23;2.63;;;2.03;;
22713;SDS011;11524;50.846;4.326;2022-11-11T15:49:49;3.65;;;2.08;;
22713;SDS011;11524;50.846;4.326;2022-11-11T15:54:47;4.03;;;2.42;;
22713;SDS011;11524;50.846;4.326;2022-11-11T15:57:23;2.58;;;2.03;;
22713;SDS011;11524;50.846;4.326;2022-11-11T15:59:54;2.50;;;2.10;;
22713;SDS011;11524;50.846;4.326;2022-11-11T16:02:22;2.78;;;2.00;;
22713;SDS011;11524;50.846;4.326;2022-11-11T16:04:51;3.60;;;1.80;;
22713;SDS011;11524;50.846;4.326;2022-11-11T16:07:23;2.80;;;2.08;;
22713;SDS011;11524;50.846;4.326;2022-11-11T16:09:59;3.25;;;2.15;;
22713;SDS011;11524;50.846;4.326;2022-11-11T16:12:31;2.95;;;2.13;;
22713;SDS011;11524;50.846;4.326;2022-11-11T16:15:07;4.05;;;2.00;;
22713;SDS011;11524;50.846;4.326;2022-11-11T16:17:35;3.35;;;2.08;;
22713;SDS011;11524;50.846;4.326;2022-11-11T16:20:10;4.40;;;2.50;;
22713;SDS011;11524;50.846;4.326;2022-11-11T16:22:40;3.28;;;2.58;;
22713;SDS011;11524;50.846;4.326;2022-11-11T16:25:16;3.45;;;2.60;;
22713;SDS011;11524;50.846;4.326;2022-11-11T16:27:45;4.55;;;2.60;;
22713;SDS011;11524;50.846;4.326;2022-11-11T16:30:20;3.63;;;2.22;;
22713;SDS011;11524;50.846;4.326;2022-11-11T16:32:57;2.53;;;2.10;;
22713;SDS011;11524;50.846;4.326;2022-11-11T16:38:04;3.08;;;2.40;;
22713;SDS011;11524;50.846;4.326;2022-11-11T16:40:34;4.03;;;2.72;;
22713;SDS011;11524;50.846;4.326;2022-11-11T16:43:20;3.15;;;2.40;;
22713;SDS011;11524;50.846;4.326;2022-11-11T16:45:52;4.70;;;2.70;;
22713;SDS011;11524;50.846;4.326;2022-11-11T16:51:13;3.85;;;2.42;;
22713;SDS011;11524;50.846;4.326;2022-11-11T16:53:55;4.25;;;2.60;;
22713;SDS011;11524;50.846;4.326;2022-11-11T16:56:35;3.40;;;2.78;;
22713;SDS011;11524;50.846;4.326;2022-11-11T16:59:07;3.83;;;2.60;;
22713;SDS011;11524;50.846;4.326;2022-11-11T17:01:42;4.30;;;2.72;;
22713;SDS011;11524;50.846;4.326;2022-11-11T17:04:09;3.88;;;2.75;;
22713;SDS011;11524;50.846;4.326;2022-11-11T17:06:52;3.30;;;2.55;;
22713;SDS011;11524;50.846;4.326;2022-11-11T17:11:54;4.38;;;3.05;;
22713;SDS011;11524;50.846;4.326;2022-11-11T17:14:20;3.88;;;3.05;;
22713;SDS011;11524;50.846;4.326;2022-11-11T17:16:46;5.13;;;2.85;;
22713;SDS011;11524;50.846;4.326;2022-11-11T17:19:12;4.57;;;3.22;;
22713;SDS011;11524;50.846;4.326;2022-11-11T17:21:38;3.97;;;3.05;;
22713;SDS011;11524;50.846;4.326;2022-11-11T17:24:03;4.95;;;2.92;;
22713;SDS011;11524;50.846;4.326;2022-11-11T17:26:29;4.13;;;3.15;;
22713;SDS011;11524;50.846;4.326;2022-11-11T17:28:56;6.43;;;3.38;;
22713;SDS011;11524;50.846;4.326;2022-11-11T17:34:27;7.07;;;3.38;;
22713;SDS011;11524;50.846;4.326;2022-11-11T17:37:03;5.43;;;3.35;;
22713;SDS011;11524;50.846;4.326;2022-11-11T17:39:31;5.07;;;2.97;;
22713;SDS011;11524;50.846;4.326;2022-11-11T17:41:57;7.05;;;3.15;;
22713;SDS011;11524;50.846;4.326;2022-11-11T17:44:22;6.70;;;3.35;;
22713;SDS011;11524;50.846;4.326;2022-11-11T17:46:48;5.50;;;3.20;;